createdAt,value
2018-07-21T00:00:02.433Z,71.02
2018-07-21T00:02:30.611Z,72.11
2018-07-21T00:04:58.798Z,74.47
2018-07-21T00:07:26.996Z,74.35
2018-07-21T00:09:55.164Z,75.14
2018-07-21T00:12:23.642Z,75.90
2018-07-21T00:14:51.796Z,71.88
2018-07-21T00:17:19.958Z,71.55
2018-07-21T00:19:48.133Z,73.98
2018-07-21T00:22:16.346Z,72.46
2018-07-21T00:24:44.537Z,73.55
2018-07-21T00:27:12.709Z,74.32
2018-07-21T00:29:40.873Z,74.34
2018-07-21T00:32:09.061Z,75.05
2018-07-21T00:34:37.269Z,74.06
2018-07-21T00:37:05.429Z,73.83
2018-07-21T00:39:33.609Z,73.83
2018-07-21T00:42:02.001Z,72.94
2018-07-21T00:44:30.166Z,73.59
2018-07-21T00:46:58.339Z,74.62
2018-07-21T00:49:26.604Z,75.79
2018-07-21T00:51:54.894Z,75.30
2018-07-21T00:54:23.084Z,76.66
2018-07-21T00:56:51.245Z,76.49
2018-07-21T00:59:19.503Z,76.99
2018-07-21T01:01:47.658Z,80.17
2018-07-21T01:04:15.836Z,79.32
2018-07-21T01:06:43.992Z,78.38
2018-07-21T01:09:12.163Z,79.33
2018-07-21T01:11:40.653Z,79.99
2018-07-21T01:14:08.818Z,80.31
2018-07-21T01:16:37.014Z,81.62
2018-07-21T01:19:05.210Z,83.57
2018-07-21T01:21:33.465Z,84.04
2018-07-21T01:24:01.656Z,83.27
2018-07-21T01:26:29.832Z,82.16
2018-07-21T01:28:57.996Z,85.26
2018-07-21T01:31:26.144Z,85.17
2018-07-21T01:33:54.497Z,86.51
2018-07-21T01:36:22.712Z,87.19
2018-07-21T01:38:50.883Z,90.46
2018-07-21T01:41:19.069Z,90.59
2018-07-21T01:43:47.241Z,90.59
2018-07-21T01:46:15.405Z,90.47
2018-07-21T01:48:43.586Z,91.85
2018-07-21T01:51:11.752Z,86.57
2018-07-21T01:53:39.910Z,86.81
2018-07-21T01:56:08.165Z,86.71
2018-07-21T01:58:36.317Z,88.71
2018-07-21T02:01:04.493Z,86.95
2018-07-21T02:03:32.676Z,86.22
2018-07-21T02:06:00.840Z,92.71
2018-07-21T02:08:29.017Z,93.01
2018-07-21T02:10:57.205Z,91.90
2018-07-21T02:13:25.369Z,91.57
2018-07-21T02:15:53.608Z,92.95
2018-07-21T02:18:22.083Z,94.06
2018-07-21T02:20:50.300Z,95.13
2018-07-21T02:23:18.471Z,93.69
2018-07-21T02:25:46.666Z,94.26
2018-07-21T02:28:14.828Z,92.51
2018-07-21T02:30:43.010Z,91.89
2018-07-21T02:33:11.190Z,91.36
2018-07-21T02:35:39.378Z,89.22
2018-07-21T02:38:07.554Z,87.24
2018-07-21T02:40:35.726Z,88.27
2018-07-21T02:43:03.909Z,90.48
2018-07-21T02:45:32.107Z,89.93
2018-07-21T02:48:00.286Z,90.52
2018-07-21T02:50:28.633Z,86.38
2018-07-21T02:52:56.889Z,87.39
2018-07-21T02:55:25.133Z,86.43
2018-07-21T02:57:53.313Z,88.38
2018-07-21T03:00:21.495Z,88.74
2018-07-21T03:02:49.668Z,89.14
2018-07-21T03:05:17.869Z,88.72
2018-07-21T03:07:46.039Z,86.68
2018-07-21T03:10:14.509Z,86.34
2018-07-21T03:12:42.701Z,87.54
2018-07-21T03:15:10.907Z,88.78
2018-07-21T03:17:40.156Z,88.33
2018-07-21T03:20:08.340Z,91.36
2018-07-21T03:22:36.554Z,88.14
2018-07-21T03:25:04.742Z,85.83
2018-07-21T03:27:32.930Z,85.84
2018-07-21T03:30:01.234Z,87.51
2018-07-21T03:32:29.428Z,85.89
2018-07-21T03:34:57.603Z,86.62
2018-07-21T03:37:25.784Z,88.67
2018-07-21T03:39:53.971Z,88.04
2018-07-21T03:42:22.131Z,88.89
2018-07-21T03:44:50.317Z,88.47
2018-07-21T03:47:18.522Z,87.63
2018-07-21T03:49:46.693Z,86.67
2018-07-21T03:52:15.033Z,88.68
2018-07-21T03:54:43.277Z,86.35
2018-07-21T03:57:11.453Z,85.04
2018-07-21T03:59:39.874Z,83.33
2018-07-21T04:02:08.073Z,81.82
2018-07-21T04:04:36.260Z,82.27
2018-07-21T04:07:04.751Z,80.43
2018-07-21T04:09:32.943Z,81.70
2018-07-21T04:12:01.157Z,83.34
2018-07-21T04:14:29.340Z,80.33
2018-07-21T04:16:57.536Z,79.97
2018-07-21T04:19:25.721Z,78.02
2018-07-21T04:21:53.892Z,79.97
2018-07-21T04:24:22.095Z,78.62
2018-07-21T04:26:50.281Z,77.66
2018-07-21T04:29:18.566Z,80.55
2018-07-21T04:31:46.734Z,80.57
2018-07-21T04:34:14.898Z,81.67
2018-07-21T04:36:43.129Z,80.70
2018-07-21T04:39:12.194Z,78.16
2018-07-21T04:41:41.070Z,76.91
2018-07-21T04:44:09.364Z,75.97
2018-07-21T04:46:37.538Z,75.35
2018-07-21T04:49:05.761Z,76.79
2018-07-21T04:51:33.954Z,75.46
2018-07-21T04:54:02.298Z,75.05
2018-07-21T04:56:30.441Z,75.75
2018-07-21T04:58:58.923Z,77.06
2018-07-21T05:01:27.127Z,72.74
2018-07-21T05:03:55.311Z,70.68
2018-07-21T05:06:23.461Z,71.00
2018-07-21T05:08:51.665Z,71.18
2018-07-21T05:11:19.874Z,71.24
2018-07-21T05:13:48.047Z,74.46
2018-07-21T05:16:16.205Z,79.08
2018-07-21T05:18:44.372Z,81.65
2018-07-21T05:21:12.577Z,81.40
2018-07-21T05:23:40.766Z,82.21
2018-07-21T05:26:08.932Z,85.40
2018-07-21T05:28:37.094Z,86.84
2018-07-21T05:31:05.288Z,87.92
2018-07-21T05:33:33.515Z,82.84
2018-07-21T05:36:01.646Z,88.55
2018-07-21T05:38:30.186Z,85.36
2018-07-21T05:40:58.374Z,78.44
2018-07-21T05:43:26.538Z,77.28
2018-07-21T05:45:54.861Z,77.45
2018-07-21T05:48:23.046Z,75.29
2018-07-21T05:50:51.225Z,74.19
2018-07-21T05:53:19.435Z,75.31
2018-07-21T05:55:47.597Z,73.10
2018-07-21T05:58:15.761Z,71.18
2018-07-21T06:00:44.501Z,71.54
2018-07-21T06:03:12.978Z,75.58
2018-07-21T06:05:41.134Z,71.31
2018-07-21T06:08:09.337Z,71.93
2018-07-21T06:10:37.509Z,73.66
2018-07-21T06:13:05.713Z,73.34
2018-07-21T06:15:33.901Z,71.21
2018-07-21T06:18:02.240Z,72.74
2018-07-21T06:20:30.433Z,72.77
2018-07-21T06:22:58.669Z,74.53
2018-07-21T06:25:26.838Z,76.49
2018-07-21T06:27:55.206Z,73.58
2018-07-21T06:30:23.413Z,71.51
2018-07-21T06:32:51.714Z,72.54
2018-07-21T06:35:19.938Z,71.84
2018-07-21T06:37:48.110Z,72.92
2018-07-21T06:40:16.278Z,78.53
2018-07-21T06:42:44.723Z,78.97
2018-07-21T06:45:12.903Z,75.56
2018-07-21T06:47:41.100Z,83.50
2018-07-21T06:50:09.592Z,76.29
2018-07-21T06:52:37.909Z,78.38
2018-07-21T06:55:07.592Z,77.83
2018-07-21T06:57:35.762Z,78.09
2018-07-21T07:00:04.498Z,81.54
2018-07-21T07:02:32.677Z,86.16
2018-07-21T07:05:00.922Z,83.90
2018-07-21T07:07:29.170Z,79.10
2018-07-21T07:09:57.341Z,74.59
2018-07-21T07:12:25.561Z,76.04
2018-07-21T07:14:53.741Z,74.71
2018-07-21T07:17:21.917Z,75.85
2018-07-21T07:19:50.085Z,83.30
2018-07-21T07:22:18.285Z,82.46
2018-07-21T07:24:46.597Z,81.40
2018-07-21T07:27:14.754Z,72.18
2018-07-21T07:29:42.929Z,76.28
2018-07-21T07:32:11.101Z,72.25
2018-07-21T07:34:39.297Z,71.75
2018-07-21T07:37:07.773Z,71.66
2018-07-21T07:39:36.268Z,72.50
2018-07-21T07:42:04.789Z,81.91
2018-07-21T07:44:32.950Z,79.84
2018-07-21T07:47:01.253Z,80.54
2018-07-21T07:49:29.421Z,74.44
2018-07-21T07:51:57.619Z,72.44
2018-07-21T07:54:25.804Z,66.75
2018-07-21T07:56:53.978Z,74.33
2018-07-21T07:59:22.176Z,70.88
2018-07-21T08:01:50.342Z,66.79
2018-07-21T08:04:18.607Z,81.99
2018-07-21T08:06:46.789Z,70.93
2018-07-21T08:09:14.960Z,67.02
2018-07-21T08:11:43.823Z,66.03
2018-07-21T08:14:12.074Z,71.26
2018-07-21T08:16:40.188Z,61.24
2018-07-21T08:19:09.065Z,64.64
2018-07-21T08:21:37.261Z,62.84
2018-07-21T08:24:05.426Z,63.92
2018-07-21T08:26:33.847Z,62.82
2018-07-21T08:29:02.198Z,64.00
2018-07-21T08:31:30.333Z,67.28
2018-07-21T08:33:58.497Z,63.33
2018-07-21T08:36:26.771Z,67.89
2018-07-21T08:38:55.017Z,65.75
2018-07-21T08:41:23.199Z,69.22
2018-07-21T08:43:51.522Z,63.50
2018-07-21T08:46:19.899Z,61.56
2018-07-21T08:48:48.125Z,65.38
2018-07-21T08:51:16.477Z,66.91
2018-07-21T08:53:44.698Z,64.68
2018-07-21T08:56:12.859Z,65.31
2018-07-21T08:58:41.050Z,64.20
2018-07-21T09:01:09.302Z,68.39
2018-07-21T09:03:37.786Z,65.05
2018-07-21T09:06:05.970Z,65.85
2018-07-21T09:08:34.148Z,63.92
2018-07-21T09:11:02.392Z,65.29
2018-07-21T09:13:30.598Z,65.86
2018-07-21T09:15:58.806Z,61.72
2018-07-21T09:18:26.974Z,60.60
2018-07-21T09:20:55.218Z,60.80
2018-07-21T09:23:23.443Z,60.50
2018-07-21T09:25:51.607Z,59.85
2018-07-21T09:28:19.798Z,63.68
2018-07-21T09:30:48.367Z,69.71
2018-07-21T09:33:16.553Z,67.63
2018-07-21T09:35:46.090Z,63.43
2018-07-21T09:38:14.249Z,57.03
2018-07-21T09:40:42.757Z,56.13
2018-07-21T09:43:10.991Z,64.51
2018-07-21T09:45:39.259Z,63.20
2018-07-21T09:48:07.437Z,58.61
2018-07-21T09:50:35.718Z,58.05
2018-07-21T09:53:03.911Z,59.72
2018-07-21T09:55:32.164Z,54.86
2018-07-21T09:58:00.379Z,53.34
2018-07-21T10:00:33.871Z,53.03
2018-07-21T10:03:02.063Z,51.99
2018-07-21T10:05:30.372Z,57.54
2018-07-21T10:07:58.559Z,54.11
2018-07-21T10:10:26.748Z,55.85
2018-07-21T10:12:54.940Z,54.14
2018-07-21T10:15:23.148Z,54.16
2018-07-21T10:17:51.310Z,57.51
2018-07-21T10:20:19.482Z,69.50
2018-07-21T10:22:47.723Z,58.80
2018-07-21T10:25:22.207Z,55.33
2018-07-21T10:27:54.784Z,64.99
2018-07-21T10:30:22.982Z,57.62
2018-07-21T10:32:51.169Z,55.59
2018-07-21T10:35:19.348Z,55.69
2018-07-21T10:37:47.547Z,64.62
2018-07-21T10:40:15.777Z,59.87
2018-07-21T10:42:44.187Z,57.70
2018-07-21T10:45:12.733Z,58.58
2018-07-21T10:47:41.056Z,55.10
2018-07-21T10:50:09.385Z,53.92
2018-07-21T10:52:37.581Z,53.16
2018-07-21T10:55:05.966Z,58.06
2018-07-21T10:57:34.125Z,55.27
2018-07-21T11:00:02.441Z,54.41
2018-07-21T11:02:30.755Z,59.26
2018-07-21T11:04:58.935Z,63.72
2018-07-21T11:07:27.168Z,61.50
2018-07-21T11:09:55.380Z,67.38
2018-07-21T11:12:23.601Z,69.08
2018-07-21T11:14:51.990Z,64.66
2018-07-21T11:17:20.273Z,70.42
2018-07-21T11:19:48.466Z,69.42
2018-07-21T11:22:22.295Z,75.54
2018-07-21T11:24:50.582Z,70.56
2018-07-21T11:27:18.761Z,74.37
2018-07-21T11:29:46.938Z,78.32
2018-07-21T11:32:15.144Z,81.85
2018-07-21T11:34:43.482Z,82.32
2018-07-21T11:37:11.828Z,85.19
2018-07-21T11:39:40.314Z,88.43
2018-07-21T11:42:08.568Z,100.00
2018-07-21T11:44:36.941Z,87.16
2018-07-21T11:47:05.515Z,100.00
2018-07-21T11:49:33.722Z,100.00
2018-07-21T11:52:02.334Z,100.00
2018-07-21T11:54:30.781Z,100.00
2018-07-21T11:56:59.828Z,100.00
2018-07-21T11:59:28.301Z,100.00
2018-07-21T12:01:56.684Z,100.00
2018-07-21T12:04:25.697Z,100.00
2018-07-21T12:06:54.021Z,100.00
2018-07-21T12:09:22.288Z,100.00
2018-07-21T12:11:53.294Z,100.00
2018-07-21T12:14:21.577Z,100.00
2018-07-21T12:16:50.000Z,100.00
2018-07-21T12:19:18.232Z,100.00
2018-07-21T12:21:46.488Z,100.00
2018-07-21T12:24:15.182Z,100.00
2018-07-21T12:26:43.508Z,100.00
2018-07-21T12:29:12.102Z,100.00
2018-07-21T12:31:40.314Z,100.00
2018-07-21T12:34:08.701Z,100.00
2018-07-21T12:36:37.044Z,100.00
2018-07-21T12:39:07.412Z,100.00
2018-07-21T12:41:35.644Z,100.00
2018-07-21T12:44:03.849Z,100.00
2018-07-21T12:46:32.054Z,100.00
2018-07-21T12:49:00.231Z,100.00
2018-07-21T12:51:28.450Z,100.00
2018-07-21T12:53:56.626Z,100.00
2018-07-21T12:56:24.804Z,100.00
2018-07-21T12:58:52.989Z,100.00
2018-07-21T13:01:21.237Z,100.00
2018-07-21T13:03:49.639Z,100.00
2018-07-21T13:06:17.897Z,100.00
2018-07-21T13:08:46.061Z,100.00
2018-07-21T13:11:14.261Z,100.00
2018-07-21T13:13:42.447Z,100.00
2018-07-21T13:16:10.625Z,100.00
2018-07-21T13:18:38.807Z,100.00
2018-07-21T13:21:07.015Z,100.00
2018-07-21T13:23:35.183Z,100.00
2018-07-21T13:26:03.397Z,100.00
2018-07-21T13:28:32.001Z,100.00
2018-07-21T13:31:00.268Z,100.00
2018-07-21T13:33:28.470Z,100.00
2018-07-21T13:35:56.690Z,100.00
2018-07-21T13:38:24.866Z,100.00
2018-07-21T13:40:53.087Z,100.00
2018-07-21T13:43:21.282Z,100.00
2018-07-21T13:45:49.518Z,100.00
2018-07-21T13:48:17.682Z,100.00
2018-07-21T13:50:45.957Z,100.00
2018-07-21T13:53:14.365Z,100.00
2018-07-21T13:55:42.578Z,100.00
2018-07-21T13:58:10.771Z,100.00
2018-07-21T14:00:39.057Z,100.00
2018-07-21T14:03:07.755Z,100.00
2018-07-21T14:05:36.677Z,100.00
2018-07-21T14:08:05.557Z,100.00
2018-07-21T14:10:35.295Z,100.00
2018-07-21T14:13:04.305Z,100.00
2018-07-21T14:15:33.393Z,100.00
2018-07-21T14:18:02.225Z,100.00
2018-07-21T14:20:31.170Z,100.00
2018-07-21T14:22:59.984Z,100.00
2018-07-21T14:25:28.607Z,100.00
2018-07-21T14:27:57.491Z,100.00
2018-07-21T14:30:26.190Z,100.00
2018-07-21T14:32:55.033Z,98.67
2018-07-21T14:35:23.797Z,99.14
2018-07-21T14:37:52.362Z,92.63
2018-07-21T14:40:20.566Z,100.00
2018-07-21T14:42:49.672Z,100.00
2018-07-21T14:45:18.984Z,100.00
2018-07-21T14:47:48.280Z,100.00
2018-07-21T14:50:18.134Z,97.39
2018-07-21T14:52:47.020Z,100.00
2018-07-21T14:55:15.241Z,100.00
2018-07-21T14:57:43.417Z,100.00
2018-07-21T15:00:11.590Z,100.00
2018-07-21T15:02:39.798Z,92.75
2018-07-21T15:05:08.090Z,94.87
2018-07-21T15:07:36.277Z,91.45
2018-07-21T15:10:04.839Z,96.48
2018-07-21T15:12:33.021Z,100.00
2018-07-21T15:15:01.560Z,99.10
2018-07-21T15:17:29.733Z,97.08
2018-07-21T15:19:57.941Z,92.00
2018-07-21T15:22:26.107Z,89.75
2018-07-21T15:24:54.637Z,83.70
2018-07-21T15:27:23.021Z,84.55
2018-07-21T15:29:51.911Z,87.51
2018-07-21T15:32:21.144Z,88.07
2018-07-21T15:34:50.091Z,92.79
2018-07-21T15:37:18.715Z,82.53
2018-07-21T15:39:48.066Z,85.43
2018-07-21T15:42:16.831Z,81.27
2018-07-21T15:44:45.703Z,81.10
2018-07-21T15:47:14.548Z,79.26
2018-07-21T15:49:43.370Z,88.57
2018-07-21T15:52:13.426Z,77.45
2018-07-21T15:54:42.272Z,65.56
2018-07-21T15:57:11.342Z,65.77
2018-07-21T15:59:40.130Z,73.34
2018-07-21T16:02:08.930Z,65.49
2018-07-21T16:04:37.118Z,60.03
2018-07-21T16:07:06.156Z,68.02
2018-07-21T16:09:34.984Z,75.43
2018-07-21T16:12:03.258Z,66.22
2018-07-21T16:14:31.473Z,65.57
2018-07-21T16:16:59.655Z,63.17
2018-07-21T16:19:27.833Z,74.50
2018-07-21T16:21:56.106Z,74.06
2018-07-21T16:24:25.514Z,75.14
2018-07-21T16:26:54.693Z,74.05
2018-07-21T16:29:23.939Z,80.63
2018-07-21T16:31:53.129Z,77.96
2018-07-21T16:34:22.385Z,76.31
2018-07-21T16:36:51.405Z,79.29
2018-07-21T16:39:20.530Z,76.85
2018-07-21T16:41:50.003Z,78.18
2018-07-21T16:44:19.004Z,80.11
2018-07-21T16:46:48.084Z,78.83
2018-07-21T16:49:17.364Z,75.27
2018-07-21T16:51:46.535Z,79.78
2018-07-21T16:54:16.038Z,78.09
2018-07-21T16:56:46.218Z,79.74
2018-07-21T16:59:15.345Z,77.34
2018-07-21T17:01:44.357Z,79.96
2018-07-21T17:04:12.564Z,83.54
2018-07-21T17:06:41.436Z,86.42
2018-07-21T17:09:11.336Z,85.84
2018-07-21T17:11:40.542Z,82.32
2018-07-21T17:14:10.438Z,82.44
2018-07-21T17:16:39.563Z,82.19
2018-07-21T17:19:07.992Z,84.25
2018-07-21T17:21:36.273Z,84.68
2018-07-21T17:24:06.139Z,89.46
2018-07-21T17:26:35.027Z,85.19
2018-07-21T17:29:04.147Z,88.36
2018-07-21T17:31:33.275Z,86.66
2018-07-21T17:34:02.369Z,91.56
2018-07-21T17:36:31.461Z,88.90
2018-07-21T17:39:00.469Z,89.89
2018-07-21T17:41:29.450Z,94.34
2018-07-21T17:43:58.581Z,96.83
2018-07-21T17:46:28.272Z,95.42
2018-07-21T17:48:57.520Z,98.58
2018-07-21T17:51:26.556Z,94.37
2018-07-21T17:53:55.770Z,92.39
2018-07-21T17:56:25.382Z,91.53
2018-07-21T17:58:53.672Z,94.59
2018-07-21T18:01:21.962Z,94.04
2018-07-21T18:03:50.229Z,92.19
2018-07-21T18:06:18.452Z,91.05
2018-07-21T18:08:46.637Z,90.53
2018-07-21T18:11:14.901Z,91.86
2018-07-21T18:13:43.077Z,95.04
2018-07-21T18:16:12.168Z,92.17
2018-07-21T18:18:41.791Z,89.45
2018-07-21T18:21:10.521Z,89.48
2018-07-21T18:23:38.698Z,89.07
2018-07-21T18:26:06.977Z,91.96
2018-07-21T18:28:35.415Z,94.62
2018-07-21T18:31:03.692Z,100.00
2018-07-21T18:33:32.030Z,100.00
2018-07-21T18:36:00.203Z,100.00
2018-07-21T18:38:28.712Z,100.00
2018-07-21T18:40:57.026Z,100.00
2018-07-21T18:43:25.200Z,100.00
2018-07-21T18:45:54.230Z,100.00
2018-07-21T18:48:22.408Z,100.00
2018-07-21T18:50:50.662Z,100.00
2018-07-21T18:53:18.834Z,100.00
2018-07-21T18:55:47.021Z,100.00
2018-07-21T18:58:15.222Z,100.00
2018-07-21T19:00:43.434Z,100.00
2018-07-21T19:03:11.938Z,100.00
2018-07-21T19:05:40.122Z,100.00
2018-07-21T19:08:08.322Z,100.00
2018-07-21T19:10:36.508Z,100.00
2018-07-21T19:13:04.725Z,100.00
2018-07-21T19:15:38.474Z,100.00
2018-07-21T19:18:06.706Z,100.00
2018-07-21T19:20:40.282Z,100.00
2018-07-21T19:23:08.971Z,100.00
2018-07-21T19:25:42.594Z,100.00
2018-07-21T19:28:10.858Z,100.00
2018-07-21T19:30:39.137Z,100.00
2018-07-21T19:33:07.329Z,100.00
2018-07-21T19:35:35.593Z,100.00
2018-07-21T19:38:03.775Z,100.00
2018-07-21T19:40:32.301Z,100.00
2018-07-21T19:43:00.517Z,100.00
2018-07-21T19:45:28.688Z,100.00
2018-07-21T19:47:57.025Z,100.00
2018-07-21T19:50:25.135Z,100.00
2018-07-21T19:52:53.385Z,100.00
2018-07-21T19:55:21.561Z,100.00
2018-07-21T19:57:49.735Z,100.00
2018-07-21T20:00:17.901Z,100.00
2018-07-21T20:02:46.906Z,100.00
2018-07-21T20:05:15.095Z,100.00
2018-07-21T20:07:43.424Z,100.00
2018-07-21T20:10:11.624Z,100.00
2018-07-21T20:12:39.802Z,100.00
2018-07-21T20:15:07.999Z,100.00
2018-07-21T20:17:36.547Z,100.00
2018-07-21T20:20:04.863Z,100.00
2018-07-21T20:22:33.045Z,100.00
2018-07-21T20:25:01.278Z,100.00
2018-07-21T20:27:29.533Z,100.00
2018-07-21T20:29:57.766Z,100.00
2018-07-21T20:32:25.997Z,100.00
2018-07-21T20:34:54.185Z,100.00
2018-07-21T20:37:22.448Z,100.00
2018-07-21T20:39:50.854Z,100.00
2018-07-21T20:42:19.221Z,100.00
2018-07-21T20:44:47.798Z,100.00
2018-07-21T20:47:15.991Z,100.00
2018-07-21T20:49:45.002Z,100.00
2018-07-21T20:52:13.433Z,100.00
2018-07-21T20:54:42.017Z,100.00
2018-07-21T20:57:10.226Z,100.00
2018-07-21T20:59:38.409Z,100.00
2018-07-21T21:02:06.709Z,100.00
2018-07-21T21:04:34.895Z,100.00
2018-07-21T21:07:03.185Z,100.00
2018-07-21T21:09:31.473Z,100.00
2018-07-21T21:12:00.262Z,100.00
2018-07-21T21:14:28.447Z,100.00
2018-07-21T21:16:56.763Z,100.00
2018-07-21T21:19:24.954Z,100.00
2018-07-21T21:21:53.152Z,100.00
2018-07-21T21:24:21.370Z,100.00
2018-07-21T21:26:49.606Z,100.00
2018-07-21T21:29:18.261Z,100.00
2018-07-21T21:31:46.518Z,100.00
2018-07-21T21:34:14.773Z,100.00
2018-07-21T21:36:43.206Z,100.00
2018-07-21T21:39:12.829Z,100.00
2018-07-21T21:41:41.411Z,100.00
2018-07-21T21:44:09.633Z,100.00
2018-07-21T21:46:37.909Z,100.00
2018-07-21T21:49:06.119Z,100.00
2018-07-21T21:51:34.445Z,100.00
2018-07-21T21:54:02.641Z,100.00
2018-07-21T21:56:31.257Z,100.00
2018-07-21T21:58:59.445Z,100.00
2018-07-21T22:01:29.159Z,100.00
2018-07-21T22:03:57.385Z,100.00
2018-07-21T22:06:25.723Z,100.00
2018-07-21T22:08:53.931Z,100.00
2018-07-21T22:11:22.127Z,100.00
2018-07-21T22:13:50.574Z,100.00
2018-07-21T22:16:18.761Z,100.00
2018-07-21T22:18:46.950Z,100.00
2018-07-21T22:21:15.296Z,100.00
2018-07-21T22:23:43.514Z,100.00
2018-07-21T22:26:11.775Z,100.00
2018-07-21T22:28:40.032Z,100.00
2018-07-21T22:31:08.301Z,100.00
2018-07-21T22:33:36.494Z,100.00
2018-07-21T22:36:04.806Z,100.00
2018-07-21T22:38:33.051Z,100.00
2018-07-21T22:41:01.536Z,100.00
2018-07-21T22:43:29.814Z,100.00
2018-07-21T22:45:57.974Z,100.00
2018-07-21T22:48:26.159Z,100.00
2018-07-21T22:50:54.338Z,100.00
2018-07-21T22:53:23.229Z,100.00
2018-07-21T22:55:51.470Z,100.00
2018-07-21T22:58:19.750Z,100.00
2018-07-21T23:00:47.974Z,100.00
2018-07-21T23:03:16.205Z,100.00
2018-07-21T23:05:44.387Z,100.00
2018-07-21T23:08:13.010Z,100.00
2018-07-21T23:10:41.239Z,100.00
2018-07-21T23:13:10.393Z,100.00
2018-07-21T23:15:39.512Z,100.00
2018-07-21T23:18:09.723Z,100.00
2018-07-21T23:20:37.896Z,100.00
2018-07-21T23:23:06.207Z,100.00
2018-07-21T23:25:34.396Z,100.00
2018-07-21T23:28:04.364Z,100.00
2018-07-21T23:30:33.182Z,100.00
2018-07-21T23:33:01.966Z,100.00
2018-07-21T23:35:31.160Z,100.00
2018-07-21T23:38:00.170Z,100.00
2018-07-21T23:40:29.244Z,100.00
2018-07-21T23:42:58.297Z,100.00
2018-07-21T23:45:27.138Z,100.00
2018-07-21T23:47:55.972Z,100.00
2018-07-21T23:50:24.196Z,100.00
2018-07-21T23:52:52.361Z,100.00
2018-07-21T23:55:21.132Z,100.00
2018-07-21T23:57:49.927Z,100.00
